BXS1010 LFRB-LFRD
Flight info
| Callsign | BXS1010 |
|---|---|
| Flight time | 0h 29m |
| Altitude | 15000 |
| Route | NORBU |
| Aircraft | B736/M-SDE2E3FGHIRWXY/LB1 |
Departure
| Time | 2026-05-06 15:50 |
|---|---|
| Airport | Brest Bretagne airport (LFRB) |
Arrival
| Time | 2026-05-06 16:20 |
|---|---|
| Airport | Dinard Pleurtuit Saint-Malo airport (LFRD) |
| Time | Latitude | Longitude | Altitude | Speed | Heading |
|---|---|---|---|---|---|
| 2026-05-06 15:29 | 48.44417 | -4.42104 | 323 ft | 0 kts | 191° |
| 2026-05-06 15:41 | 48.44418 | -4.42103 | 323 ft | 2 kts | 191° |
| 2026-05-06 15:42 | 48.44434 | -4.42099 | 319 ft | 2 kts | 192° |
| 2026-05-06 15:42 | 48.44450 | -4.42094 | 322 ft | 2 kts | 192° |
| 2026-05-06 15:42 | 48.44466 | -4.42089 | 321 ft | 2 kts | 192° |
| 2026-05-06 15:42 | 48.44482 | -4.42083 | 320 ft | 2 kts | 195° |
| 2026-05-06 15:43 | 48.44498 | -4.42075 | 319 ft | 2 kts | 216° |
| 2026-05-06 15:43 | 48.44507 | -4.42055 | 321 ft | 2 kts | 250° |
| 2026-05-06 15:43 | 48.44512 | -4.42033 | 322 ft | 2 kts | 249° |
| 2026-05-06 15:43 | 48.44514 | -4.42027 | 322 ft | 0 kts | 249° |
| 2026-05-06 15:44 | 48.44514 | -4.42028 | 322 ft | 0 kts | 249° |
| 2026-05-06 15:45 | 48.44513 | -4.42031 | 322 ft | 1 kts | 252° |
| 2026-05-06 15:45 | 48.44519 | -4.42073 | 320 ft | 6 kts | 311° |
| 2026-05-06 15:45 | 48.44561 | -4.42102 | 323 ft | 7 kts | 341° |
| 2026-05-06 15:45 | 48.44608 | -4.42122 | 321 ft | 9 kts | 343° |
| 2026-05-06 15:46 | 48.44681 | -4.42172 | 319 ft | 12 kts | 316° |
| 2026-05-06 15:46 | 48.44686 | -4.42297 | 314 ft | 15 kts | 252° |
| 2026-05-06 15:46 | 48.44646 | -4.42479 | 308 ft | 23 kts | 251° |
| 2026-05-06 15:46 | 48.44586 | -4.42739 | 302 ft | 30 kts | 250° |
| 2026-05-06 15:47 | 48.44514 | -4.43059 | 301 ft | 33 kts | 251° |
| 2026-05-06 15:47 | 48.44444 | -4.43367 | 301 ft | 29 kts | 250° |
| 2026-05-06 15:47 | 48.44383 | -4.43649 | 301 ft | 27 kts | 258° |
| 2026-05-06 15:47 | 48.44367 | -4.43832 | 296 ft | 7 kts | 200° |
| 2026-05-06 15:48 | 48.44348 | -4.43822 | 294 ft | 1 kts | 130° |
| 2026-05-06 15:48 | 48.44348 | -4.43797 | 295 ft | 3 kts | 79° |
| 2026-05-06 15:48 | 48.44349 | -4.43789 | 294 ft | 0 kts | 73° |
| 2026-05-06 15:50 | 48.44366 | -4.43710 | 300 ft | 36 kts | 72° |
| 2026-05-06 15:50 | 48.44547 | -4.42909 | 299 ft | 123 kts | 72° |
| 2026-05-06 15:50 | 48.44860 | -4.41398 | 575 ft | 169 kts | 72° |
| 2026-05-06 15:50 | 48.45153 | -4.39764 | 1860 ft | 150 kts | 66° |
| 2026-05-06 15:51 | 48.45602 | -4.38378 | 2865 ft | 148 kts | 55° |
| 2026-05-06 15:51 | 48.46297 | -4.37013 | 3229 ft | 182 kts | 46° |
| 2026-05-06 15:51 | 48.47299 | -4.35621 | 3572 ft | 211 kts | 36° |
| 2026-05-06 15:51 | 48.48646 | -4.34443 | 3893 ft | 236 kts | 21° |
| 2026-05-06 15:52 | 48.50308 | -4.33859 | 4346 ft | 259 kts | 3° |
| 2026-05-06 15:52 | 48.52123 | -4.34094 | 5268 ft | 264 kts | 348° |
| 2026-05-06 15:52 | 48.53929 | -4.34720 | 6251 ft | 269 kts | 346° |
| 2026-05-06 15:52 | 48.55772 | -4.35351 | 7135 ft | 275 kts | 347° |
| 2026-05-06 15:53 | 48.57659 | -4.35921 | 8090 ft | 277 kts | 348° |
| 2026-05-06 15:53 | 48.59570 | -4.36449 | 9049 ft | 281 kts | 348° |
| 2026-05-06 15:53 | 48.61516 | -4.36967 | 10015 ft | 285 kts | 348° |
| 2026-05-06 15:53 | 48.63510 | -4.37540 | 10582 ft | 302 kts | 345° |
| 2026-05-06 15:54 | 48.65627 | -4.38428 | 10797 ft | 329 kts | 342° |
| 2026-05-06 15:54 | 48.67932 | -4.39080 | 11275 ft | 346 kts | 359° |
| 2026-05-06 15:54 | 48.70303 | -4.38278 | 12112 ft | 354 kts | 24° |
| 2026-05-06 15:54 | 48.72270 | -4.36025 | 12998 ft | 361 kts | 49° |
| 2026-05-06 15:55 | 48.73449 | -4.32660 | 13824 ft | 368 kts | 75° |
| 2026-05-06 15:55 | 48.73612 | -4.28789 | 14554 ft | 373 kts | 94° |
| 2026-05-06 15:55 | 48.73393 | -4.24916 | 14892 ft | 374 kts | 95° |
| 2026-05-06 15:55 | 48.73125 | -4.20941 | 14993 ft | 387 kts | 96° |
| 2026-05-06 15:56 | 48.72841 | -4.16853 | 14994 ft | 393 kts | 96° |
| 2026-05-06 15:56 | 48.72562 | -4.12731 | 14987 ft | 394 kts | 96° |
| 2026-05-06 15:56 | 48.72293 | -4.08603 | 14980 ft | 393 kts | 95° |
| 2026-05-06 15:56 | 48.72034 | -4.04489 | 14964 ft | 392 kts | 95° |
| 2026-05-06 15:57 | 48.71780 | -4.00378 | 14971 ft | 392 kts | 95° |
| 2026-05-06 15:57 | 48.71529 | -3.96266 | 14972 ft | 392 kts | 95° |
| 2026-05-06 15:57 | 48.71278 | -3.92149 | 14971 ft | 393 kts | 95° |
| 2026-05-06 15:57 | 48.71028 | -3.88036 | 14969 ft | 393 kts | 95° |
| 2026-05-06 15:58 | 48.70776 | -3.83915 | 14970 ft | 393 kts | 95° |
| 2026-05-06 15:58 | 48.70523 | -3.79794 | 14973 ft | 394 kts | 95° |
| 2026-05-06 15:58 | 48.70268 | -3.75668 | 14970 ft | 394 kts | 95° |
| 2026-05-06 15:58 | 48.70011 | -3.71536 | 14964 ft | 394 kts | 95° |
| 2026-05-06 15:59 | 48.69751 | -3.67398 | 14970 ft | 394 kts | 95° |
| 2026-05-06 15:59 | 48.69490 | -3.63272 | 14991 ft | 394 kts | 95° |
| 2026-05-06 15:59 | 48.69228 | -3.59149 | 14991 ft | 394 kts | 95° |
| 2026-05-06 15:59 | 48.68965 | -3.55030 | 14995 ft | 393 kts | 95° |
| 2026-05-06 16:00 | 48.68703 | -3.50954 | 14993 ft | 393 kts | 95° |
| 2026-05-06 16:00 | 48.68437 | -3.46837 | 14995 ft | 393 kts | 95° |
| 2026-05-06 16:00 | 48.68169 | -3.42717 | 14996 ft | 393 kts | 95° |
| 2026-05-06 16:00 | 48.67901 | -3.38603 | 14995 ft | 393 kts | 95° |
| 2026-05-06 16:01 | 48.67630 | -3.34482 | 14994 ft | 393 kts | 95° |
| 2026-05-06 16:01 | 48.67358 | -3.30364 | 14991 ft | 393 kts | 96° |
| 2026-05-06 16:01 | 48.67085 | -3.26238 | 14991 ft | 393 kts | 96° |
| 2026-05-06 16:01 | 48.66814 | -3.22183 | 14989 ft | 393 kts | 96° |
| 2026-05-06 16:02 | 48.66538 | -3.18063 | 14989 ft | 394 kts | 96° |
| 2026-05-06 16:02 | 48.66260 | -3.13948 | 14983 ft | 393 kts | 96° |
| 2026-05-06 16:02 | 48.65980 | -3.09824 | 14984 ft | 393 kts | 96° |
| 2026-05-06 16:02 | 48.65700 | -3.05710 | 14988 ft | 393 kts | 96° |
| 2026-05-06 16:03 | 48.65418 | -3.01597 | 14989 ft | 393 kts | 96° |
| 2026-05-06 16:03 | 48.65134 | -2.97478 | 14990 ft | 394 kts | 96° |
| 2026-05-06 16:03 | 48.64848 | -2.93356 | 14992 ft | 394 kts | 96° |
| 2026-05-06 16:03 | 48.64562 | -2.89250 | 14979 ft | 387 kts | 96° |
| 2026-05-06 16:04 | 48.64287 | -2.85327 | 14948 ft | 375 kts | 96° |
| 2026-05-06 16:04 | 48.64009 | -2.81379 | 14679 ft | 370 kts | 96° |
| 2026-05-06 16:04 | 48.63740 | -2.77588 | 14440 ft | 366 kts | 96° |
| 2026-05-06 16:04 | 48.63466 | -2.73719 | 14197 ft | 365 kts | 96° |
| 2026-05-06 16:05 | 48.63198 | -2.69965 | 13820 ft | 364 kts | 96° |
| 2026-05-06 16:05 | 48.62926 | -2.66176 | 13301 ft | 360 kts | 96° |
| 2026-05-06 16:05 | 48.62656 | -2.62429 | 12795 ft | 356 kts | 96° |
| 2026-05-06 16:05 | 48.62389 | -2.58736 | 12298 ft | 352 kts | 96° |
| 2026-05-06 16:06 | 48.62123 | -2.55079 | 11807 ft | 349 kts | 96° |
| 2026-05-06 16:06 | 48.61858 | -2.51450 | 11322 ft | 345 kts | 96° |
| 2026-05-06 16:06 | 48.61594 | -2.47860 | 10845 ft | 342 kts | 96° |
| 2026-05-06 16:06 | 48.61332 | -2.44311 | 10549 ft | 334 kts | 96° |
| 2026-05-06 16:07 | 48.61079 | -2.40895 | 10396 ft | 322 kts | 96° |
| 2026-05-06 16:07 | 48.60834 | -2.37593 | 10255 ft | 310 kts | 96° |
| 2026-05-06 16:07 | 48.60596 | -2.34406 | 10115 ft | 300 kts | 96° |
| 2026-05-06 16:07 | 48.60365 | -2.31327 | 9999 ft | 290 kts | 96° |
| 2026-05-06 16:08 | 48.60139 | -2.28330 | 9727 ft | 286 kts | 96° |
| 2026-05-06 16:08 | 48.59914 | -2.25352 | 9407 ft | 284 kts | 96° |
| 2026-05-06 16:08 | 48.59690 | -2.22392 | 9092 ft | 282 kts | 96° |
| 2026-05-06 16:08 | 48.59467 | -2.19446 | 8778 ft | 280 kts | 96° |
| 2026-05-06 16:09 | 48.59245 | -2.16531 | 8464 ft | 278 kts | 96° |
| 2026-05-06 16:09 | 48.59027 | -2.13674 | 8166 ft | 277 kts | 96° |
| 2026-05-06 16:09 | 48.58806 | -2.10797 | 7861 ft | 275 kts | 96° |
| 2026-05-06 16:09 | 48.58224 | -2.08074 | 7533 ft | 274 kts | 122° |
| 2026-05-06 16:10 | 48.56970 | -2.05945 | 7262 ft | 271 kts | 138° |
| 2026-05-06 16:10 | 48.55553 | -2.04095 | 6954 ft | 269 kts | 140° |
| 2026-05-06 16:10 | 48.54120 | -2.02268 | 6657 ft | 269 kts | 140° |
| 2026-05-06 16:10 | 48.52696 | -2.00447 | 6354 ft | 268 kts | 139° |
| 2026-05-06 16:11 | 48.51282 | -1.98622 | 6040 ft | 267 kts | 139° |
| 2026-05-06 16:11 | 48.49877 | -1.96797 | 5727 ft | 266 kts | 139° |
| 2026-05-06 16:11 | 48.48483 | -1.94981 | 5432 ft | 264 kts | 138° |
| 2026-05-06 16:11 | 48.47100 | -1.93178 | 5161 ft | 262 kts | 138° |
| 2026-05-06 16:12 | 48.45745 | -1.91413 | 5055 ft | 253 kts | 139° |
| 2026-05-06 16:12 | 48.44222 | -1.90176 | 4903 ft | 248 kts | 165° |
| 2026-05-06 16:12 | 48.42542 | -1.89704 | 4798 ft | 245 kts | 170° |
| 2026-05-06 16:12 | 48.40850 | -1.89283 | 4679 ft | 248 kts | 170° |
| 2026-05-06 16:13 | 48.39139 | -1.88851 | 4544 ft | 250 kts | 170° |
| 2026-05-06 16:13 | 48.37425 | -1.88867 | 4369 ft | 253 kts | 196° |
| 2026-05-06 16:13 | 48.35931 | -1.90163 | 4246 ft | 249 kts | 227° |
| 2026-05-06 16:13 | 48.35085 | -1.92363 | 4096 ft | 240 kts | 254° |
| 2026-05-06 16:14 | 48.34724 | -1.94764 | 3994 ft | 232 kts | 261° |
| 2026-05-06 16:14 | 48.34462 | -1.97120 | 3867 ft | 225 kts | 263° |
| 2026-05-06 16:14 | 48.34590 | -1.99381 | 3709 ft | 215 kts | 299° |
| 2026-05-06 16:14 | 48.35603 | -2.00858 | 3643 ft | 201 kts | 336° |
| 2026-05-06 16:15 | 48.36873 | -2.01638 | 3556 ft | 193 kts | 340° |
| 2026-05-06 16:15 | 48.38112 | -2.02248 | 3453 ft | 183 kts | 343° |
| 2026-05-06 16:15 | 48.39330 | -2.02744 | 3330 ft | 179 kts | 347° |
| 2026-05-06 16:15 | 48.40540 | -2.03137 | 3274 ft | 178 kts | 349° |
| 2026-05-06 16:16 | 48.41772 | -2.03493 | 3135 ft | 181 kts | 350° |
| 2026-05-06 16:16 | 48.43007 | -2.03831 | 3015 ft | 178 kts | 350° |
| 2026-05-06 16:16 | 48.44213 | -2.04153 | 2911 ft | 177 kts | 350° |
| 2026-05-06 16:16 | 48.45434 | -2.04477 | 2688 ft | 178 kts | 351° |
| 2026-05-06 16:17 | 48.46643 | -2.04796 | 2454 ft | 174 kts | 351° |
| 2026-05-06 16:17 | 48.47808 | -2.05105 | 2221 ft | 166 kts | 351° |
| 2026-05-06 16:17 | 48.48923 | -2.05399 | 2006 ft | 160 kts | 350° |
| 2026-05-06 16:17 | 48.49986 | -2.05678 | 1803 ft | 149 kts | 351° |
| 2026-05-06 16:18 | 48.50942 | -2.05932 | 1617 ft | 134 kts | 351° |
| 2026-05-06 16:18 | 48.51830 | -2.06165 | 1472 ft | 126 kts | 351° |
| 2026-05-06 16:18 | 48.52673 | -2.06386 | 1307 ft | 125 kts | 351° |
| 2026-05-06 16:18 | 48.53536 | -2.06615 | 1123 ft | 126 kts | 352° |
| 2026-05-06 16:19 | 48.54408 | -2.06844 | 965 ft | 126 kts | 351° |
| 2026-05-06 16:19 | 48.55273 | -2.07073 | 796 ft | 126 kts | 352° |
| 2026-05-06 16:19 | 48.56141 | -2.07326 | 599 ft | 125 kts | 352° |
| 2026-05-06 16:19 | 48.56982 | -2.07537 | 412 ft | 121 kts | 353° |
| 2026-05-06 16:20 | 48.57826 | -2.07744 | 245 ft | 123 kts | 352° |
| 2026-05-06 16:20 | 48.58623 | -2.07953 | 210 ft | 100 kts | 350° |
| 2026-05-06 16:20 | 48.59005 | -2.08057 | 209 ft | 35 kts | 349° |
| 2026-05-06 16:20 | 48.59142 | -2.08088 | 205 ft | 19 kts | 2° |
| 2026-05-06 16:21 | 48.59197 | -2.07990 | 204 ft | 10 kts | 78° |
| 2026-05-06 16:21 | 48.59208 | -2.07892 | 207 ft | 9 kts | 86° |
| 2026-05-06 16:21 | 48.59165 | -2.07828 | 208 ft | 10 kts | 167° |
| 2026-05-06 16:21 | 48.59089 | -2.07807 | 205 ft | 12 kts | 170° |
| 2026-05-06 16:22 | 48.58999 | -2.07783 | 206 ft | 14 kts | 169° |
| 2026-05-06 16:22 | 48.58975 | -2.07775 | 206 ft | 3 kts | 162° |
| 2026-05-06 16:22 | 48.58963 | -2.07723 | 215 ft | 8 kts | 80° |
| 2026-05-06 16:22 | 48.58965 | -2.07706 | 211 ft | 1 kts | 78° |
| 2026-05-06 16:23 | 48.58966 | -2.07699 | 207 ft | 0 kts | 79° |